createdAt,value
2023-01-17T00:03:07.397Z,-2.35
2023-01-17T00:08:31.518Z,-2.42
2023-01-17T00:13:34.192Z,-2.38
2023-01-17T00:18:36.890Z,-2.33
2023-01-17T00:23:58.282Z,-2.33
2023-01-17T00:29:00.749Z,-2.18
2023-01-17T00:34:03.314Z,-2.42
2023-01-17T00:39:05.762Z,-2.30
2023-01-17T00:44:27.001Z,-2.23
2023-01-17T00:49:48.021Z,-2.31
2023-01-17T00:55:09.176Z,-2.16
2023-01-17T01:00:30.617Z,-2.06
2023-01-17T01:05:51.821Z,-2.21
2023-01-17T01:11:13.299Z,-2.21
2023-01-17T01:16:35.285Z,-2.04
2023-01-17T01:21:56.281Z,-2.09
2023-01-17T01:27:17.347Z,-2.13
2023-01-17T01:32:38.364Z,-2.10
2023-01-17T01:37:40.953Z,-1.99
2023-01-17T01:42:57.124Z,-1.86
2023-01-17T01:48:06.204Z,-1.96
2023-01-17T01:53:08.931Z,-1.84
2023-01-17T01:58:16.429Z,-1.90
2023-01-17T02:03:27.409Z,-1.97
2023-01-17T02:08:31.431Z,-2.06
2023-01-17T02:13:34.073Z,-2.01
2023-01-17T02:18:56.450Z,-1.95
2023-01-17T02:24:23.639Z,-1.89
2023-01-17T02:29:41.136Z,-1.79
2023-01-17T02:34:49.513Z,-1.86
2023-01-17T02:39:59.965Z,-1.80
2023-01-17T02:45:03.059Z,-1.85
2023-01-17T02:50:31.935Z,-1.88
2023-01-17T02:55:57.788Z,-1.79
2023-01-17T03:01:27.883Z,-1.72
2023-01-17T03:06:58.756Z,-1.75
2023-01-17T03:12:01.379Z,-1.83
2023-01-17T03:17:04.595Z,-1.86
2023-01-17T03:22:07.129Z,-1.76
2023-01-17T03:27:09.686Z,-1.78
2023-01-17T03:32:12.201Z,-1.97
2023-01-17T03:37:15.165Z,-1.77
2023-01-17T03:42:17.932Z,-1.71
2023-01-17T03:47:20.517Z,-1.56
2023-01-17T03:52:23.109Z,-1.60
2023-01-17T03:57:25.701Z,-1.66
2023-01-17T04:02:29.235Z,-1.67
2023-01-17T04:07:31.808Z,-1.79
2023-01-17T04:12:34.393Z,-1.79
2023-01-17T04:17:37.054Z,-1.82
2023-01-17T04:22:39.712Z,-1.82
2023-01-17T04:27:42.256Z,-1.95
2023-01-17T04:32:44.875Z,-1.84
2023-01-17T04:37:47.553Z,-1.73
2023-01-17T04:42:51.411Z,-1.61
2023-01-17T04:47:58.771Z,-1.80
2023-01-17T04:53:01.350Z,-1.58
2023-01-17T04:58:03.929Z,-1.59
2023-01-17T05:03:07.868Z,-1.57
2023-01-17T05:08:10.565Z,-1.49
2023-01-17T05:13:13.221Z,-1.79
2023-01-17T05:18:17.677Z,-1.63
2023-01-17T05:23:20.269Z,-1.55
2023-01-17T05:28:22.771Z,-1.51
2023-01-17T05:33:25.325Z,-1.47
2023-01-17T05:38:27.869Z,-1.40
2023-01-17T05:43:30.576Z,-1.34
2023-01-17T05:48:33.155Z,-1.33
2023-01-17T05:53:35.782Z,-1.43
2023-01-17T05:58:40.118Z,-1.44
2023-01-17T06:03:42.655Z,-1.38
2023-01-17T06:08:45.785Z,-1.48
2023-01-17T06:13:48.993Z,-1.42
2023-01-17T06:18:51.588Z,-1.32
2023-01-17T06:23:55.401Z,-1.33
2023-01-17T06:28:58.087Z,-1.21
2023-01-17T06:34:04.821Z,-1.07
2023-01-17T06:39:07.489Z,-1.02
2023-01-17T06:44:10.389Z,-0.91
2023-01-17T06:49:13.090Z,-0.82
2023-01-17T06:54:15.779Z,-0.66
2023-01-17T06:59:18.470Z,-0.62
2023-01-17T07:04:21.069Z,-0.70
2023-01-17T07:09:24.282Z,-0.70
2023-01-17T07:14:27.006Z,-0.65
2023-01-17T07:19:29.768Z,-0.60
2023-01-17T07:24:34.308Z,-0.54
2023-01-17T07:29:36.944Z,-0.48
2023-01-17T07:34:39.510Z,-0.42
2023-01-17T07:39:42.151Z,-0.27
2023-01-17T07:44:45.542Z,-0.20
2023-01-17T07:49:48.086Z,-0.15
2023-01-17T07:54:50.792Z,-0.17
2023-01-17T07:59:53.347Z,-0.20
2023-01-17T08:05:00.845Z,-0.04
2023-01-17T08:10:06.821Z,0.15
2023-01-17T08:15:10.298Z,0.10
2023-01-17T08:20:13.168Z,0.20
2023-01-17T08:25:18.750Z,0.23
2023-01-17T08:30:21.341Z,0.36
2023-01-17T08:35:23.920Z,0.28
2023-01-17T08:40:26.861Z,0.26
2023-01-17T08:45:29.489Z,0.25
2023-01-17T08:50:32.041Z,0.47
2023-01-17T08:55:39.564Z,0.49
2023-01-17T09:00:42.108Z,0.59
2023-01-17T09:05:44.814Z,0.64
2023-01-17T09:10:47.398Z,0.84
2023-01-17T09:15:50.128Z,0.84
2023-01-17T09:20:55.282Z,0.85
2023-01-17T09:25:59.900Z,0.89
2023-01-17T09:31:07.483Z,0.82
2023-01-17T09:36:11.012Z,0.89
2023-01-17T09:41:30.137Z,1.06
2023-01-17T09:46:38.611Z,1.10
2023-01-17T09:51:42.698Z,1.24
2023-01-17T09:56:54.661Z,0.95
2023-01-17T10:02:51.608Z,0.98
2023-01-17T10:08:01.226Z,1.10
2023-01-17T10:13:19.462Z,1.09
2023-01-17T10:18:30.505Z,1.07
2023-01-17T10:23:46.976Z,1.15
2023-01-17T10:28:53.085Z,1.07
2023-01-17T10:33:57.970Z,1.14
2023-01-17T10:39:19.400Z,1.26
2023-01-17T10:44:27.605Z,1.40
2023-01-17T10:49:30.893Z,1.29
2023-01-17T10:55:10.447Z,1.36
2023-01-17T11:00:22.002Z,1.43
2023-01-17T11:05:28.845Z,1.33
2023-01-17T11:10:49.472Z,1.35
2023-01-17T11:16:00.834Z,1.33
2023-01-17T11:21:16.204Z,1.38
2023-01-17T11:26:30.427Z,1.44
2023-01-17T11:31:32.987Z,1.42
2023-01-17T11:36:35.705Z,1.47
2023-01-17T11:41:41.195Z,1.45
2023-01-17T11:46:43.760Z,1.51
2023-01-17T11:51:46.398Z,1.47
2023-01-17T11:56:50.601Z,1.57
2023-01-17T12:02:38.613Z,1.66
2023-01-17T12:08:18.314Z,1.57
2023-01-17T12:13:58.119Z,1.55
2023-01-17T12:19:32.497Z,1.46
2023-01-17T12:24:53.538Z,1.52
2023-01-17T12:30:10.895Z,1.60
2023-01-17T12:35:33.582Z,1.66
2023-01-17T12:41:00.341Z,1.69
2023-01-17T12:46:27.276Z,1.78
2023-01-17T12:51:37.608Z,1.72
2023-01-17T12:56:52.615Z,1.81
2023-01-17T13:02:00.075Z,1.61
2023-01-17T13:07:20.396Z,1.66
2023-01-17T13:12:29.837Z,1.60
2023-01-17T13:17:45.091Z,1.59
2023-01-17T13:22:48.124Z,1.52
2023-01-17T13:28:13.613Z,1.44
2023-01-17T13:33:34.997Z,1.58
2023-01-17T13:38:57.695Z,1.56
2023-01-17T13:44:19.557Z,1.59
2023-01-17T13:49:34.251Z,1.65
2023-01-17T13:55:04.569Z,1.61
2023-01-17T14:00:16.293Z,1.52
2023-01-17T14:05:39.058Z,1.54
2023-01-17T14:10:52.311Z,1.36
2023-01-17T14:15:55.032Z,1.55
2023-01-17T14:21:10.031Z,1.59
2023-01-17T14:26:21.332Z,1.57
2023-01-17T14:31:24.725Z,1.63
2023-01-17T14:36:32.555Z,1.58
2023-01-17T14:41:35.149Z,1.43
2023-01-17T14:46:37.743Z,1.41
2023-01-17T14:51:40.254Z,1.43
2023-01-17T14:56:42.774Z,1.37
2023-01-17T15:02:06.809Z,1.37
2023-01-17T15:07:23.041Z,1.39
2023-01-17T15:12:25.694Z,1.28
2023-01-17T15:17:28.712Z,1.31
2023-01-17T15:22:31.531Z,1.37
2023-01-17T15:27:34.339Z,1.18
2023-01-17T15:32:38.065Z,1.35
2023-01-17T15:37:41.795Z,1.49
2023-01-17T15:42:50.678Z,1.52
2023-01-17T15:47:53.217Z,1.45
2023-01-17T15:52:59.153Z,1.43
2023-01-17T15:58:02.746Z,1.45
2023-01-17T16:03:32.794Z,1.42
2023-01-17T16:08:39.847Z,1.29
2023-01-17T16:13:43.526Z,1.18
2023-01-17T16:18:47.245Z,1.14
2023-01-17T16:23:50.418Z,1.03
2023-01-17T16:28:53.071Z,1.10
2023-01-17T16:33:56.134Z,1.06
2023-01-17T16:38:58.772Z,0.96
2023-01-17T16:44:05.473Z,0.96
2023-01-17T16:49:08.092Z,0.99
2023-01-17T16:54:10.691Z,0.93
2023-01-17T16:59:13.275Z,0.88
2023-01-17T17:04:16.206Z,0.63
2023-01-17T17:09:18.774Z,0.80
2023-01-17T17:14:21.415Z,0.74
2023-01-17T17:19:24.272Z,0.68
2023-01-17T17:24:27.027Z,0.67
2023-01-17T17:29:29.653Z,0.66
2023-01-17T17:34:34.358Z,0.66
2023-01-17T17:39:36.968Z,0.55
2023-01-17T17:44:39.562Z,0.45
2023-01-17T17:49:42.747Z,0.45
2023-01-17T17:54:45.306Z,0.57
2023-01-17T17:59:47.885Z,0.49
2023-01-17T18:04:50.493Z,0.37
2023-01-17T18:09:54.008Z,0.37
2023-01-17T18:14:56.593Z,0.45
2023-01-17T18:19:59.744Z,0.55
2023-01-17T18:25:02.613Z,0.37
2023-01-17T18:30:06.622Z,0.55
2023-01-17T18:35:09.719Z,0.61
2023-01-17T18:40:12.468Z,0.58
2023-01-17T18:45:15.514Z,0.46
2023-01-17T18:50:18.165Z,0.61
2023-01-17T18:55:20.757Z,0.61
2023-01-17T19:00:23.933Z,0.56
2023-01-17T19:05:26.549Z,0.37
2023-01-17T19:10:29.116Z,0.54
2023-01-17T19:15:32.116Z,0.58
2023-01-17T19:20:35.772Z,0.55
2023-01-17T19:25:38.377Z,0.42
2023-01-17T19:30:41.028Z,0.44
2023-01-17T19:35:43.608Z,0.32
2023-01-17T19:40:46.305Z,0.35
2023-01-17T19:45:59.441Z,0.40
2023-01-17T19:51:13.139Z,0.55
2023-01-17T19:56:18.712Z,0.52
2023-01-17T20:01:25.323Z,0.37
2023-01-17T20:06:30.876Z,0.32
2023-01-17T20:11:33.838Z,0.30
2023-01-17T20:16:37.785Z,0.29
2023-01-17T20:21:40.510Z,0.20
2023-01-17T20:26:44.119Z,0.11
2023-01-17T20:31:52.514Z,0.12
2023-01-17T20:36:57.550Z,-0.07
2023-01-17T20:42:00.131Z,0.14
2023-01-17T20:47:02.695Z,0.05
2023-01-17T20:52:06.265Z,0.03
2023-01-17T20:57:08.969Z,-0.04
2023-01-17T21:02:12.701Z,-0.03
2023-01-17T21:07:15.353Z,-0.10
2023-01-17T21:12:18.148Z,0.04
2023-01-17T21:17:20.718Z,0.03
2023-01-17T21:22:23.265Z,-0.07
2023-01-17T21:27:25.823Z,-0.06
2023-01-17T21:32:29.803Z,-0.09
2023-01-17T21:37:32.426Z,-0.16
2023-01-17T21:42:35.044Z,-0.20
2023-01-17T21:47:37.632Z,-0.24
2023-01-17T21:52:40.259Z,-0.28
2023-01-17T21:58:01.391Z,-0.24
2023-01-17T22:03:04.042Z,-0.30
2023-01-17T22:08:12.569Z,-0.42
2023-01-17T22:13:18.449Z,-0.42
2023-01-17T22:18:21.025Z,-0.41
2023-01-17T22:23:23.711Z,-0.39
2023-01-17T22:28:26.271Z,-0.38
2023-01-17T22:33:28.769Z,-0.35
2023-01-17T22:38:31.915Z,-0.44
2023-01-17T22:43:36.380Z,-0.44
2023-01-17T22:48:39.969Z,-0.39
2023-01-17T22:53:54.461Z,-0.39
2023-01-17T22:58:58.889Z,-0.38
2023-01-17T23:04:03.921Z,-0.40
2023-01-17T23:09:17.340Z,-0.47
2023-01-17T23:14:29.131Z,-0.44
2023-01-17T23:19:52.097Z,-0.42
2023-01-17T23:24:58.678Z,-0.31
2023-01-17T23:30:01.844Z,-0.17
2023-01-17T23:35:05.975Z,-0.24
2023-01-17T23:40:09.521Z,-0.21
2023-01-17T23:45:12.080Z,-0.20
2023-01-17T23:50:14.719Z,-0.41
2023-01-17T23:55:18.159Z,-0.23
